Watson, Missouri
Current Conditions -  °F | °C
As of 9:35 PM on Sunday 21 Dec 2014 (Local Time) from KAFK Reporting Station
Haze Haze  
Wind Chill: 34°   Ceiling: 400
Heat Index: 42°   Visibility: 2mi
Dew Point: 42°   Wind: 16mph
Humidity: 100%   Direction: 170°S
Pressure: 29.68"   Gusts: 22mph
Location:  40.48°N, 95.62°W
Report Text: KAFK 220335Z AUTO 17014G19KT 2SM BR OVC004 06/06 A2968 RMK AO2 T00550055
Loading
Personal Weather Stations






























Interactive Weather Map New forecast layout! Learn more

10-Day Weather Forecast

Advertisements
Track Severe Weather on mobile